sensor_id;sensor_type;location;lat;lon;timestamp;P1;durP1;ratioP1;P2;durP2;ratioP2
4186;SDS011;2107;52.306;10.484;2023-03-16T00:01:06;0.60;;;0.60;;
4186;SDS011;2107;52.306;10.484;2023-03-16T00:03:33;0.40;;;0.40;;
4186;SDS011;2107;52.306;10.484;2023-03-16T00:06:00;0.40;;;0.40;;
4186;SDS011;2107;52.306;10.484;2023-03-16T00:08:27;0.43;;;0.43;;
4186;SDS011;2107;52.306;10.484;2023-03-16T00:10:54;0.60;;;0.60;;
4186;SDS011;2107;52.306;10.484;2023-03-16T00:13:22;0.50;;;0.50;;
4186;SDS011;2107;52.306;10.484;2023-03-16T00:15:50;0.57;;;0.57;;
4186;SDS011;2107;52.306;10.484;2023-03-16T00:18:18;0.40;;;0.40;;
4186;SDS011;2107;52.306;10.484;2023-03-16T00:20:48;0.30;;;0.30;;
4186;SDS011;2107;52.306;10.484;2023-03-16T00:23:15;0.50;;;0.50;;
4186;SDS011;2107;52.306;10.484;2023-03-16T00:25:42;0.40;;;0.40;;
4186;SDS011;2107;52.306;10.484;2023-03-16T00:28:09;0.30;;;0.30;;
4186;SDS011;2107;52.306;10.484;2023-03-16T00:30:39;0.40;;;0.40;;
4186;SDS011;2107;52.306;10.484;2023-03-16T00:33:06;0.50;;;0.50;;
4186;SDS011;2107;52.306;10.484;2023-03-16T00:35:33;0.40;;;0.40;;
4186;SDS011;2107;52.306;10.484;2023-03-16T00:37:59;0.40;;;0.40;;
4186;SDS011;2107;52.306;10.484;2023-03-16T00:40:26;0.40;;;0.40;;
4186;SDS011;2107;52.306;10.484;2023-03-16T00:42:54;0.30;;;0.30;;
4186;SDS011;2107;52.306;10.484;2023-03-16T00:45:21;0.30;;;0.30;;
4186;SDS011;2107;52.306;10.484;2023-03-16T00:47:49;0.30;;;0.30;;
4186;SDS011;2107;52.306;10.484;2023-03-16T00:50:18;0.30;;;0.30;;
4186;SDS011;2107;52.306;10.484;2023-03-16T00:52:46;0.30;;;0.30;;
4186;SDS011;2107;52.306;10.484;2023-03-16T00:55:13;0.40;;;0.40;;
4186;SDS011;2107;52.306;10.484;2023-03-16T00:57:40;0.40;;;0.40;;
4186;SDS011;2107;52.306;10.484;2023-03-16T01:00:07;0.40;;;0.40;;
4186;SDS011;2107;52.306;10.484;2023-03-16T01:02:37;0.40;;;0.40;;
4186;SDS011;2107;52.306;10.484;2023-03-16T01:05:05;0.40;;;0.40;;
4186;SDS011;2107;52.306;10.484;2023-03-16T01:07:33;0.50;;;0.50;;
4186;SDS011;2107;52.306;10.484;2023-03-16T01:10:01;0.40;;;0.40;;
4186;SDS011;2107;52.306;10.484;2023-03-16T01:12:28;0.50;;;0.50;;
4186;SDS011;2107;52.306;10.484;2023-03-16T01:14:54;0.33;;;0.33;;
4186;SDS011;2107;52.306;10.484;2023-03-16T01:17:21;0.30;;;0.30;;
4186;SDS011;2107;52.306;10.484;2023-03-16T01:19:48;0.20;;;0.20;;
4186;SDS011;2107;52.306;10.484;2023-03-16T01:22:17;0.30;;;0.30;;
4186;SDS011;2107;52.306;10.484;2023-03-16T01:24:44;0.40;;;0.40;;
4186;SDS011;2107;52.306;10.484;2023-03-16T01:27:11;0.60;;;0.60;;
4186;SDS011;2107;52.306;10.484;2023-03-16T01:29:39;0.50;;;0.50;;
4186;SDS011;2107;52.306;10.484;2023-03-16T01:32:07;0.70;;;0.70;;
4186;SDS011;2107;52.306;10.484;2023-03-16T01:34:34;0.80;;;0.80;;
4186;SDS011;2107;52.306;10.484;2023-03-16T01:37:01;0.70;;;0.70;;
4186;SDS011;2107;52.306;10.484;2023-03-16T01:39:30;0.70;;;0.70;;
4186;SDS011;2107;52.306;10.484;2023-03-16T01:41:57;0.40;;;0.40;;
4186;SDS011;2107;52.306;10.484;2023-03-16T01:44:24;0.50;;;0.50;;
4186;SDS011;2107;52.306;10.484;2023-03-16T01:46:54;0.30;;;0.30;;
4186;SDS011;2107;52.306;10.484;2023-03-16T01:49:21;0.40;;;0.40;;
4186;SDS011;2107;52.306;10.484;2023-03-16T01:51:52;0.30;;;0.30;;
4186;SDS011;2107;52.306;10.484;2023-03-16T01:54:22;0.30;;;0.30;;
4186;SDS011;2107;52.306;10.484;2023-03-16T01:56:55;0.30;;;0.30;;
4186;SDS011;2107;52.306;10.484;2023-03-16T01:59:29;0.30;;;0.30;;
4186;SDS011;2107;52.306;10.484;2023-03-16T02:01:59;0.30;;;0.30;;
4186;SDS011;2107;52.306;10.484;2023-03-16T02:07:12;0.30;;;0.30;;
4186;SDS011;2107;52.306;10.484;2023-03-16T02:09:43;0.30;;;0.30;;
4186;SDS011;2107;52.306;10.484;2023-03-16T02:12:14;0.30;;;0.30;;
4186;SDS011;2107;52.306;10.484;2023-03-16T02:14:43;0.30;;;0.30;;
4186;SDS011;2107;52.306;10.484;2023-03-16T02:17:10;0.30;;;0.30;;
4186;SDS011;2107;52.306;10.484;2023-03-16T02:19:40;0.30;;;0.30;;
4186;SDS011;2107;52.306;10.484;2023-03-16T02:22:14;0.30;;;0.30;;
4186;SDS011;2107;52.306;10.484;2023-03-16T02:24:42;0.40;;;0.40;;
4186;SDS011;2107;52.306;10.484;2023-03-16T02:27:10;0.37;;;0.37;;
4186;SDS011;2107;52.306;10.484;2023-03-16T02:29:51;0.40;;;0.40;;
4186;SDS011;2107;52.306;10.484;2023-03-16T02:32:22;0.40;;;0.40;;
4186;SDS011;2107;52.306;10.484;2023-03-16T02:34:51;0.40;;;0.40;;
4186;SDS011;2107;52.306;10.484;2023-03-16T02:37:19;0.40;;;0.40;;
4186;SDS011;2107;52.306;10.484;2023-03-16T02:39:46;0.30;;;0.30;;
4186;SDS011;2107;52.306;10.484;2023-03-16T02:42:14;0.40;;;0.40;;
4186;SDS011;2107;52.306;10.484;2023-03-16T02:44:43;0.30;;;0.30;;
4186;SDS011;2107;52.306;10.484;2023-03-16T02:47:19;0.40;;;0.40;;
4186;SDS011;2107;52.306;10.484;2023-03-16T02:49:52;0.40;;;0.40;;
4186;SDS011;2107;52.306;10.484;2023-03-16T02:52:18;0.50;;;0.50;;
4186;SDS011;2107;52.306;10.484;2023-03-16T02:54:45;0.50;;;0.50;;
4186;SDS011;2107;52.306;10.484;2023-03-16T02:57:12;0.50;;;0.50;;
4186;SDS011;2107;52.306;10.484;2023-03-16T02:59:39;0.60;;;0.60;;
4186;SDS011;2107;52.306;10.484;2023-03-16T03:02:06;0.60;;;0.60;;
4186;SDS011;2107;52.306;10.484;2023-03-16T03:04:34;0.60;;;0.60;;
4186;SDS011;2107;52.306;10.484;2023-03-16T03:07:01;0.57;;;0.57;;
4186;SDS011;2107;52.306;10.484;2023-03-16T03:09:30;0.67;;;0.67;;
4186;SDS011;2107;52.306;10.484;2023-03-16T03:11:57;0.70;;;0.70;;
4186;SDS011;2107;52.306;10.484;2023-03-16T03:14:25;0.60;;;0.60;;
4186;SDS011;2107;52.306;10.484;2023-03-16T03:16:52;0.90;;;0.90;;
4186;SDS011;2107;52.306;10.484;2023-03-16T03:19:21;0.70;;;0.70;;
4186;SDS011;2107;52.306;10.484;2023-03-16T03:21:49;0.83;;;0.83;;
4186;SDS011;2107;52.306;10.484;2023-03-16T03:24:20;0.80;;;0.80;;
4186;SDS011;2107;52.306;10.484;2023-03-16T03:26:48;0.70;;;0.70;;
4186;SDS011;2107;52.306;10.484;2023-03-16T03:29:16;0.50;;;0.50;;
4186;SDS011;2107;52.306;10.484;2023-03-16T03:31:43;0.53;;;0.53;;
4186;SDS011;2107;52.306;10.484;2023-03-16T03:34:09;0.70;;;0.70;;
4186;SDS011;2107;52.306;10.484;2023-03-16T03:36:36;0.63;;;0.63;;
4186;SDS011;2107;52.306;10.484;2023-03-16T03:39:04;0.80;;;0.80;;
4186;SDS011;2107;52.306;10.484;2023-03-16T03:41:31;0.80;;;0.80;;
4186;SDS011;2107;52.306;10.484;2023-03-16T03:43:58;0.70;;;0.70;;
4186;SDS011;2107;52.306;10.484;2023-03-16T03:46:25;0.80;;;0.80;;
4186;SDS011;2107;52.306;10.484;2023-03-16T03:48:52;0.70;;;0.70;;
4186;SDS011;2107;52.306;10.484;2023-03-16T03:51:19;0.40;;;0.40;;
4186;SDS011;2107;52.306;10.484;2023-03-16T03:53:46;0.50;;;0.50;;
4186;SDS011;2107;52.306;10.484;2023-03-16T03:56:14;0.60;;;0.60;;
4186;SDS011;2107;52.306;10.484;2023-03-16T03:58:41;0.60;;;0.60;;
4186;SDS011;2107;52.306;10.484;2023-03-16T04:01:07;0.53;;;0.53;;
4186;SDS011;2107;52.306;10.484;2023-03-16T04:03:34;0.60;;;0.60;;
4186;SDS011;2107;52.306;10.484;2023-03-16T04:06:01;0.60;;;0.60;;
4186;SDS011;2107;52.306;10.484;2023-03-16T04:08:28;0.70;;;0.70;;
4186;SDS011;2107;52.306;10.484;2023-03-16T04:10:55;0.60;;;0.60;;
4186;SDS011;2107;52.306;10.484;2023-03-16T04:13:23;0.70;;;0.70;;
4186;SDS011;2107;52.306;10.484;2023-03-16T04:15:54;0.70;;;0.70;;
4186;SDS011;2107;52.306;10.484;2023-03-16T04:18:22;0.80;;;0.80;;
4186;SDS011;2107;52.306;10.484;2023-03-16T04:20:49;0.90;;;0.90;;
4186;SDS011;2107;52.306;10.484;2023-03-16T04:23:17;0.80;;;0.80;;
4186;SDS011;2107;52.306;10.484;2023-03-16T04:25:44;0.70;;;0.70;;
4186;SDS011;2107;52.306;10.484;2023-03-16T04:28:11;0.80;;;0.80;;
4186;SDS011;2107;52.306;10.484;2023-03-16T04:30:43;0.67;;;0.67;;
4186;SDS011;2107;52.306;10.484;2023-03-16T04:33:10;0.50;;;0.50;;
4186;SDS011;2107;52.306;10.484;2023-03-16T04:35:36;0.50;;;0.50;;
4186;SDS011;2107;52.306;10.484;2023-03-16T04:38:03;0.50;;;0.50;;
4186;SDS011;2107;52.306;10.484;2023-03-16T04:40:30;0.43;;;0.43;;
4186;SDS011;2107;52.306;10.484;2023-03-16T04:42:57;0.60;;;0.60;;
4186;SDS011;2107;52.306;10.484;2023-03-16T04:45:24;0.70;;;0.70;;
4186;SDS011;2107;52.306;10.484;2023-03-16T04:47:52;0.70;;;0.70;;
4186;SDS011;2107;52.306;10.484;2023-03-16T04:50:19;0.90;;;0.90;;
4186;SDS011;2107;52.306;10.484;2023-03-16T04:52:46;0.80;;;0.80;;
4186;SDS011;2107;52.306;10.484;2023-03-16T04:55:13;0.90;;;0.90;;
4186;SDS011;2107;52.306;10.484;2023-03-16T04:57:40;0.90;;;0.90;;
4186;SDS011;2107;52.306;10.484;2023-03-16T05:00:08;1.00;;;1.00;;
4186;SDS011;2107;52.306;10.484;2023-03-16T05:02:39;1.00;;;1.00;;
4186;SDS011;2107;52.306;10.484;2023-03-16T05:05:08;0.80;;;0.80;;
4186;SDS011;2107;52.306;10.484;2023-03-16T05:07:35;0.80;;;0.80;;
4186;SDS011;2107;52.306;10.484;2023-03-16T05:10:02;0.70;;;0.70;;
4186;SDS011;2107;52.306;10.484;2023-03-16T05:12:29;0.90;;;0.90;;
4186;SDS011;2107;52.306;10.484;2023-03-16T05:14:56;0.93;;;0.93;;
4186;SDS011;2107;52.306;10.484;2023-03-16T05:17:23;1.17;;;1.17;;
4186;SDS011;2107;52.306;10.484;2023-03-16T05:19:50;1.20;;;1.20;;
4186;SDS011;2107;52.306;10.484;2023-03-16T05:22:18;1.30;;;1.30;;
4186;SDS011;2107;52.306;10.484;2023-03-16T05:24:45;1.50;;;1.50;;
4186;SDS011;2107;52.306;10.484;2023-03-16T05:27:11;1.30;;;1.30;;
4186;SDS011;2107;52.306;10.484;2023-03-16T05:29:38;1.30;;;1.30;;
4186;SDS011;2107;52.306;10.484;2023-03-16T05:32:10;1.30;;;1.30;;
4186;SDS011;2107;52.306;10.484;2023-03-16T05:34:37;1.50;;;1.50;;
4186;SDS011;2107;52.306;10.484;2023-03-16T05:37:04;1.20;;;1.20;;
4186;SDS011;2107;52.306;10.484;2023-03-16T05:39:32;1.30;;;1.30;;
4186;SDS011;2107;52.306;10.484;2023-03-16T05:41:59;1.20;;;1.20;;
4186;SDS011;2107;52.306;10.484;2023-03-16T05:44:26;1.30;;;1.30;;
4186;SDS011;2107;52.306;10.484;2023-03-16T05:46:53;1.50;;;1.50;;
4186;SDS011;2107;52.306;10.484;2023-03-16T05:49:20;1.37;;;1.37;;
4186;SDS011;2107;52.306;10.484;2023-03-16T05:51:47;1.20;;;1.20;;
4186;SDS011;2107;52.306;10.484;2023-03-16T05:54:15;1.20;;;1.20;;
4186;SDS011;2107;52.306;10.484;2023-03-16T05:56:44;1.20;;;1.20;;
4186;SDS011;2107;52.306;10.484;2023-03-16T05:59:10;1.00;;;1.00;;
4186;SDS011;2107;52.306;10.484;2023-03-16T06:01:37;1.10;;;1.10;;
4186;SDS011;2107;52.306;10.484;2023-03-16T06:04:04;1.20;;;1.20;;
4186;SDS011;2107;52.306;10.484;2023-03-16T06:06:31;1.20;;;1.20;;
4186;SDS011;2107;52.306;10.484;2023-03-16T06:08:58;1.30;;;1.30;;
4186;SDS011;2107;52.306;10.484;2023-03-16T06:11:25;1.00;;;1.00;;
4186;SDS011;2107;52.306;10.484;2023-03-16T06:13:53;1.00;;;1.00;;
4186;SDS011;2107;52.306;10.484;2023-03-16T06:16:21;0.90;;;0.90;;
4186;SDS011;2107;52.306;10.484;2023-03-16T06:18:48;1.10;;;1.10;;
4186;SDS011;2107;52.306;10.484;2023-03-16T06:21:15;1.17;;;1.17;;
4186;SDS011;2107;52.306;10.484;2023-03-16T06:23:42;0.90;;;0.90;;
4186;SDS011;2107;52.306;10.484;2023-03-16T06:26:09;1.20;;;1.20;;
4186;SDS011;2107;52.306;10.484;2023-03-16T06:28:36;1.00;;;1.00;;
4186;SDS011;2107;52.306;10.484;2023-03-16T06:31:04;0.93;;;0.93;;
4186;SDS011;2107;52.306;10.484;2023-03-16T06:33:31;1.00;;;1.00;;
4186;SDS011;2107;52.306;10.484;2023-03-16T06:35:58;1.30;;;1.30;;
4186;SDS011;2107;52.306;10.484;2023-03-16T06:38:25;1.30;;;1.30;;
4186;SDS011;2107;52.306;10.484;2023-03-16T06:40:53;1.30;;;1.30;;
4186;SDS011;2107;52.306;10.484;2023-03-16T06:43:20;1.40;;;1.40;;
4186;SDS011;2107;52.306;10.484;2023-03-16T06:45:46;1.20;;;1.20;;
4186;SDS011;2107;52.306;10.484;2023-03-16T06:48:15;1.30;;;1.30;;
4186;SDS011;2107;52.306;10.484;2023-03-16T06:50:43;1.60;;;1.60;;
4186;SDS011;2107;52.306;10.484;2023-03-16T06:53:10;1.50;;;1.50;;
4186;SDS011;2107;52.306;10.484;2023-03-16T06:55:37;1.77;;;1.77;;
4186;SDS011;2107;52.306;10.484;2023-03-16T06:58:05;1.40;;;1.40;;
4186;SDS011;2107;52.306;10.484;2023-03-16T07:00:32;1.40;;;1.40;;
4186;SDS011;2107;52.306;10.484;2023-03-16T07:02:59;1.17;;;1.17;;
4186;SDS011;2107;52.306;10.484;2023-03-16T07:05:28;1.10;;;1.10;;
4186;SDS011;2107;52.306;10.484;2023-03-16T07:07:55;1.17;;;1.17;;
4186;SDS011;2107;52.306;10.484;2023-03-16T07:10:22;1.20;;;1.20;;
4186;SDS011;2107;52.306;10.484;2023-03-16T07:12:50;0.90;;;0.90;;
4186;SDS011;2107;52.306;10.484;2023-03-16T07:15:17;1.20;;;1.20;;
4186;SDS011;2107;52.306;10.484;2023-03-16T07:17:45;1.00;;;1.00;;
4186;SDS011;2107;52.306;10.484;2023-03-16T07:20:12;1.00;;;1.00;;
4186;SDS011;2107;52.306;10.484;2023-03-16T07:22:40;1.10;;;1.10;;
4186;SDS011;2107;52.306;10.484;2023-03-16T07:25:07;1.00;;;1.00;;
4186;SDS011;2107;52.306;10.484;2023-03-16T07:27:35;1.30;;;1.30;;
4186;SDS011;2107;52.306;10.484;2023-03-16T07:30:03;1.00;;;1.00;;
4186;SDS011;2107;52.306;10.484;2023-03-16T07:32:30;0.90;;;0.90;;
4186;SDS011;2107;52.306;10.484;2023-03-16T07:34:57;1.00;;;1.00;;
4186;SDS011;2107;52.306;10.484;2023-03-16T07:37:24;0.90;;;0.90;;
4186;SDS011;2107;52.306;10.484;2023-03-16T07:39:53;0.90;;;0.90;;
4186;SDS011;2107;52.306;10.484;2023-03-16T07:42:20;1.00;;;1.00;;
4186;SDS011;2107;52.306;10.484;2023-03-16T07:44:47;0.73;;;0.73;;
4186;SDS011;2107;52.306;10.484;2023-03-16T07:47:14;0.70;;;0.70;;
4186;SDS011;2107;52.306;10.484;2023-03-16T07:49:41;0.90;;;0.90;;
4186;SDS011;2107;52.306;10.484;2023-03-16T07:52:08;0.87;;;0.87;;
4186;SDS011;2107;52.306;10.484;2023-03-16T07:54:37;1.10;;;1.10;;
4186;SDS011;2107;52.306;10.484;2023-03-16T07:57:06;0.80;;;0.80;;
4186;SDS011;2107;52.306;10.484;2023-03-16T07:59:33;1.03;;;1.03;;
4186;SDS011;2107;52.306;10.484;2023-03-16T08:01:59;1.20;;;1.20;;
4186;SDS011;2107;52.306;10.484;2023-03-16T08:04:26;0.90;;;0.90;;
4186;SDS011;2107;52.306;10.484;2023-03-16T08:06:53;1.10;;;1.10;;
4186;SDS011;2107;52.306;10.484;2023-03-16T08:09:24;1.10;;;1.10;;
4186;SDS011;2107;52.306;10.484;2023-03-16T08:11:51;1.10;;;1.10;;
4186;SDS011;2107;52.306;10.484;2023-03-16T08:14:21;0.97;;;0.97;;
4186;SDS011;2107;52.306;10.484;2023-03-16T08:16:48;1.00;;;1.00;;
4186;SDS011;2107;52.306;10.484;2023-03-16T08:19:15;1.00;;;1.00;;
4186;SDS011;2107;52.306;10.484;2023-03-16T08:21:44;1.20;;;1.20;;
4186;SDS011;2107;52.306;10.484;2023-03-16T08:24:11;1.20;;;1.20;;
4186;SDS011;2107;52.306;10.484;2023-03-16T08:26:38;1.10;;;1.10;;
4186;SDS011;2107;52.306;10.484;2023-03-16T08:29:04;1.00;;;1.00;;
4186;SDS011;2107;52.306;10.484;2023-03-16T08:31:33;1.10;;;1.10;;
4186;SDS011;2107;52.306;10.484;2023-03-16T08:34:00;1.10;;;1.10;;
4186;SDS011;2107;52.306;10.484;2023-03-16T08:36:27;1.20;;;1.20;;
4186;SDS011;2107;52.306;10.484;2023-03-16T08:38:55;1.20;;;1.20;;
4186;SDS011;2107;52.306;10.484;2023-03-16T08:41:21;1.13;;;1.13;;
4186;SDS011;2107;52.306;10.484;2023-03-16T08:43:49;1.30;;;1.30;;
4186;SDS011;2107;52.306;10.484;2023-03-16T08:46:16;1.40;;;1.40;;
4186;SDS011;2107;52.306;10.484;2023-03-16T08:48:44;1.20;;;1.20;;
4186;SDS011;2107;52.306;10.484;2023-03-16T08:51:12;1.20;;;1.20;;
4186;SDS011;2107;52.306;10.484;2023-03-16T08:53:39;1.13;;;1.13;;
4186;SDS011;2107;52.306;10.484;2023-03-16T08:56:06;1.20;;;1.20;;
4186;SDS011;2107;52.306;10.484;2023-03-16T08:58:36;1.40;;;1.40;;
4186;SDS011;2107;52.306;10.484;2023-03-16T09:01:04;1.50;;;1.50;;
4186;SDS011;2107;52.306;10.484;2023-03-16T09:03:33;1.47;;;1.47;;
4186;SDS011;2107;52.306;10.484;2023-03-16T09:06:02;1.60;;;1.60;;
4186;SDS011;2107;52.306;10.484;2023-03-16T09:08:31;1.53;;;1.53;;
4186;SDS011;2107;52.306;10.484;2023-03-16T09:10:59;1.80;;;1.80;;
4186;SDS011;2107;52.306;10.484;2023-03-16T09:13:26;2.10;;;2.10;;
4186;SDS011;2107;52.306;10.484;2023-03-16T09:15:53;1.90;;;1.90;;
4186;SDS011;2107;52.306;10.484;2023-03-16T09:18:20;1.83;;;1.83;;
4186;SDS011;2107;52.306;10.484;2023-03-16T09:20:48;1.60;;;1.60;;
4186;SDS011;2107;52.306;10.484;2023-03-16T09:23:16;1.93;;;1.93;;
4186;SDS011;2107;52.306;10.484;2023-03-16T09:25:44;1.47;;;1.47;;
4186;SDS011;2107;52.306;10.484;2023-03-16T09:28:12;1.40;;;1.40;;
4186;SDS011;2107;52.306;10.484;2023-03-16T09:30:39;1.00;;;1.00;;
4186;SDS011;2107;52.306;10.484;2023-03-16T09:33:06;1.43;;;1.43;;
4186;SDS011;2107;52.306;10.484;2023-03-16T09:35:34;1.53;;;1.53;;
4186;SDS011;2107;52.306;10.484;2023-03-16T09:38:01;1.30;;;1.30;;
4186;SDS011;2107;52.306;10.484;2023-03-16T09:40:29;1.30;;;1.30;;
4186;SDS011;2107;52.306;10.484;2023-03-16T09:43:14;1.50;;;1.50;;
4186;SDS011;2107;52.306;10.484;2023-03-16T09:45:55;1.50;;;1.50;;
4186;SDS011;2107;52.306;10.484;2023-03-16T09:48:29;1.20;;;1.20;;
4186;SDS011;2107;52.306;10.484;2023-03-16T09:50:59;1.20;;;1.20;;
4186;SDS011;2107;52.306;10.484;2023-03-16T09:53:30;1.20;;;1.20;;
4186;SDS011;2107;52.306;10.484;2023-03-16T09:56:01;1.30;;;1.30;;
4186;SDS011;2107;52.306;10.484;2023-03-16T09:58:47;1.37;;;1.37;;
4186;SDS011;2107;52.306;10.484;2023-03-16T10:01:33;1.20;;;1.20;;
4186;SDS011;2107;52.306;10.484;2023-03-16T10:04:08;1.00;;;1.00;;
4186;SDS011;2107;52.306;10.484;2023-03-16T10:07:00;1.10;;;1.10;;
4186;SDS011;2107;52.306;10.484;2023-03-16T10:09:40;1.40;;;1.40;;
4186;SDS011;2107;52.306;10.484;2023-03-16T10:12:14;1.00;;;1.00;;
4186;SDS011;2107;52.306;10.484;2023-03-16T10:14:43;1.30;;;1.30;;
4186;SDS011;2107;52.306;10.484;2023-03-16T10:17:15;1.20;;;1.20;;
4186;SDS011;2107;52.306;10.484;2023-03-16T10:19:44;1.10;;;1.10;;
4186;SDS011;2107;52.306;10.484;2023-03-16T10:22:17;1.20;;;1.20;;
4186;SDS011;2107;52.306;10.484;2023-03-16T10:24:55;1.27;;;1.27;;
4186;SDS011;2107;52.306;10.484;2023-03-16T10:27:29;1.30;;;1.30;;
4186;SDS011;2107;52.306;10.484;2023-03-16T10:29:57;1.40;;;1.40;;
4186;SDS011;2107;52.306;10.484;2023-03-16T10:32:29;1.40;;;1.40;;
4186;SDS011;2107;52.306;10.484;2023-03-16T10:34:59;1.00;;;1.00;;
4186;SDS011;2107;52.306;10.484;2023-03-16T10:37:31;0.90;;;0.90;;
4186;SDS011;2107;52.306;10.484;2023-03-16T10:39:58;0.80;;;0.80;;
4186;SDS011;2107;52.306;10.484;2023-03-16T10:42:25;1.10;;;1.10;;
4186;SDS011;2107;52.306;10.484;2023-03-16T10:44:57;0.80;;;0.80;;
4186;SDS011;2107;52.306;10.484;2023-03-16T10:47:27;1.00;;;1.00;;
4186;SDS011;2107;52.306;10.484;2023-03-16T10:49:56;1.17;;;1.17;;
4186;SDS011;2107;52.306;10.484;2023-03-16T10:52:24;0.97;;;0.97;;
4186;SDS011;2107;52.306;10.484;2023-03-16T10:54:59;1.10;;;1.10;;
4186;SDS011;2107;52.306;10.484;2023-03-16T10:57:30;1.30;;;1.30;;
4186;SDS011;2107;52.306;10.484;2023-03-16T11:00:03;1.40;;;1.40;;
4186;SDS011;2107;52.306;10.484;2023-03-16T11:02:44;1.50;;;1.50;;
4186;SDS011;2107;52.306;10.484;2023-03-16T11:05:14;1.50;;;1.50;;
4186;SDS011;2107;52.306;10.484;2023-03-16T11:07:52;1.40;;;1.40;;
4186;SDS011;2107;52.306;10.484;2023-03-16T11:10:24;1.40;;;1.40;;
4186;SDS011;2107;52.306;10.484;2023-03-16T11:13:00;1.50;;;1.50;;
4186;SDS011;2107;52.306;10.484;2023-03-16T11:15:41;1.50;;;1.50;;
4186;SDS011;2107;52.306;10.484;2023-03-16T11:18:15;1.60;;;1.60;;
4186;SDS011;2107;52.306;10.484;2023-03-16T11:20:50;1.60;;;1.60;;
4186;SDS011;2107;52.306;10.484;2023-03-16T11:23:18;1.50;;;1.50;;
4186;SDS011;2107;52.306;10.484;2023-03-16T11:25:52;1.80;;;1.80;;
4186;SDS011;2107;52.306;10.484;2023-03-16T11:28:23;1.50;;;1.50;;
4186;SDS011;2107;52.306;10.484;2023-03-16T11:31:00;1.60;;;1.60;;
4186;SDS011;2107;52.306;10.484;2023-03-16T11:33:41;1.70;;;1.70;;
4186;SDS011;2107;52.306;10.484;2023-03-16T11:36:14;1.90;;;1.90;;
4186;SDS011;2107;52.306;10.484;2023-03-16T11:38:52;2.20;;;2.20;;
4186;SDS011;2107;52.306;10.484;2023-03-16T11:41:31;1.80;;;1.80;;
4186;SDS011;2107;52.306;10.484;2023-03-16T11:44:04;1.80;;;1.80;;
4186;SDS011;2107;52.306;10.484;2023-03-16T11:46:41;1.47;;;1.47;;
4186;SDS011;2107;52.306;10.484;2023-03-16T11:49:41;1.77;;;1.77;;
4186;SDS011;2107;52.306;10.484;2023-03-16T11:52:22;1.70;;;1.70;;
4186;SDS011;2107;52.306;10.484;2023-03-16T11:55:00;1.70;;;1.70;;
4186;SDS011;2107;52.306;10.484;2023-03-16T11:57:37;1.80;;;1.80;;
4186;SDS011;2107;52.306;10.484;2023-03-16T12:00:25;1.90;;;1.90;;
4186;SDS011;2107;52.306;10.484;2023-03-16T12:05:55;1.60;;;1.60;;
4186;SDS011;2107;52.306;10.484;2023-03-16T12:11:19;1.20;;;1.20;;
4186;SDS011;2107;52.306;10.484;2023-03-16T12:13:58;1.37;;;1.37;;
4186;SDS011;2107;52.306;10.484;2023-03-16T12:16:34;1.30;;;1.30;;
4186;SDS011;2107;52.306;10.484;2023-03-16T12:19:11;1.60;;;1.60;;
4186;SDS011;2107;52.306;10.484;2023-03-16T12:21:43;2.00;;;2.00;;
4186;SDS011;2107;52.306;10.484;2023-03-16T12:24:15;1.70;;;1.70;;
4186;SDS011;2107;52.306;10.484;2023-03-16T12:26:46;2.10;;;2.10;;
4186;SDS011;2107;52.306;10.484;2023-03-16T12:29:15;1.90;;;1.90;;
4186;SDS011;2107;52.306;10.484;2023-03-16T12:31:51;2.03;;;2.03;;
4186;SDS011;2107;52.306;10.484;2023-03-16T12:34:25;2.20;;;2.20;;
4186;SDS011;2107;52.306;10.484;2023-03-16T12:37:17;1.90;;;1.90;;
4186;SDS011;2107;52.306;10.484;2023-03-16T12:39:55;1.73;;;1.73;;
4186;SDS011;2107;52.306;10.484;2023-03-16T12:45:35;1.50;;;1.50;;
4186;SDS011;2107;52.306;10.484;2023-03-16T12:48:11;1.40;;;1.40;;
4186;SDS011;2107;52.306;10.484;2023-03-16T12:50:50;1.70;;;1.70;;
4186;SDS011;2107;52.306;10.484;2023-03-16T12:53:27;1.70;;;1.70;;
4186;SDS011;2107;52.306;10.484;2023-03-16T12:56:04;1.60;;;1.60;;
4186;SDS011;2107;52.306;10.484;2023-03-16T12:58:34;1.97;;;1.97;;
4186;SDS011;2107;52.306;10.484;2023-03-16T13:01:02;1.40;;;1.40;;
4186;SDS011;2107;52.306;10.484;2023-03-16T13:03:36;1.50;;;1.50;;
4186;SDS011;2107;52.306;10.484;2023-03-16T13:06:05;1.90;;;1.90;;
4186;SDS011;2107;52.306;10.484;2023-03-16T13:08:41;1.40;;;1.40;;
4186;SDS011;2107;52.306;10.484;2023-03-16T13:11:12;1.40;;;1.40;;
4186;SDS011;2107;52.306;10.484;2023-03-16T13:13:46;1.60;;;1.60;;
4186;SDS011;2107;52.306;10.484;2023-03-16T13:16:21;2.00;;;2.00;;
4186;SDS011;2107;52.306;10.484;2023-03-16T13:18:51;1.20;;;1.20;;
4186;SDS011;2107;52.306;10.484;2023-03-16T13:21:20;1.30;;;1.30;;
4186;SDS011;2107;52.306;10.484;2023-03-16T13:23:59;1.40;;;1.40;;
4186;SDS011;2107;52.306;10.484;2023-03-16T13:26:38;1.40;;;1.40;;
4186;SDS011;2107;52.306;10.484;2023-03-16T13:29:20;1.30;;;1.30;;
4186;SDS011;2107;52.306;10.484;2023-03-16T13:31:49;1.20;;;1.20;;
4186;SDS011;2107;52.306;10.484;2023-03-16T13:34:21;1.40;;;1.40;;
4186;SDS011;2107;52.306;10.484;2023-03-16T13:36:53;1.50;;;1.50;;
4186;SDS011;2107;52.306;10.484;2023-03-16T13:39:23;1.40;;;1.40;;
4186;SDS011;2107;52.306;10.484;2023-03-16T13:42:00;1.30;;;1.30;;
4186;SDS011;2107;52.306;10.484;2023-03-16T13:44:29;1.10;;;1.10;;
4186;SDS011;2107;52.306;10.484;2023-03-16T13:47:01;1.20;;;1.20;;
4186;SDS011;2107;52.306;10.484;2023-03-16T13:49:29;1.80;;;1.80;;
4186;SDS011;2107;52.306;10.484;2023-03-16T13:51:58;1.87;;;1.87;;
4186;SDS011;2107;52.306;10.484;2023-03-16T13:54:25;2.00;;;2.00;;
4186;SDS011;2107;52.306;10.484;2023-03-16T13:56:55;1.80;;;1.80;;
4186;SDS011;2107;52.306;10.484;2023-03-16T13:59:24;1.90;;;1.90;;
4186;SDS011;2107;52.306;10.484;2023-03-16T14:01:55;1.70;;;1.70;;
4186;SDS011;2107;52.306;10.484;2023-03-16T14:04:24;1.90;;;1.90;;
4186;SDS011;2107;52.306;10.484;2023-03-16T14:06:54;1.90;;;1.90;;
4186;SDS011;2107;52.306;10.484;2023-03-16T14:09:25;1.70;;;1.70;;
4186;SDS011;2107;52.306;10.484;2023-03-16T14:11:54;1.60;;;1.60;;
4186;SDS011;2107;52.306;10.484;2023-03-16T14:14:23;2.03;;;2.03;;
4186;SDS011;2107;52.306;10.484;2023-03-16T14:16:53;1.80;;;1.80;;
4186;SDS011;2107;52.306;10.484;2023-03-16T14:19:26;1.60;;;1.60;;
4186;SDS011;2107;52.306;10.484;2023-03-16T14:22:00;2.00;;;2.00;;
4186;SDS011;2107;52.306;10.484;2023-03-16T14:24:30;2.00;;;2.00;;
4186;SDS011;2107;52.306;10.484;2023-03-16T14:27:08;2.20;;;2.20;;
4186;SDS011;2107;52.306;10.484;2023-03-16T14:29:42;2.17;;;2.17;;
4186;SDS011;2107;52.306;10.484;2023-03-16T14:32:21;2.20;;;2.20;;
4186;SDS011;2107;52.306;10.484;2023-03-16T14:34:52;2.30;;;2.30;;
4186;SDS011;2107;52.306;10.484;2023-03-16T14:37:32;2.10;;;2.10;;
4186;SDS011;2107;52.306;10.484;2023-03-16T14:40:02;2.30;;;2.30;;
4186;SDS011;2107;52.306;10.484;2023-03-16T14:42:31;1.70;;;1.70;;
4186;SDS011;2107;52.306;10.484;2023-03-16T14:44:59;2.60;;;2.60;;
4186;SDS011;2107;52.306;10.484;2023-03-16T14:47:30;1.80;;;1.80;;
4186;SDS011;2107;52.306;10.484;2023-03-16T14:50:05;2.50;;;2.50;;
4186;SDS011;2107;52.306;10.484;2023-03-16T14:52:33;1.70;;;1.70;;
4186;SDS011;2107;52.306;10.484;2023-03-16T14:55:08;2.47;;;2.47;;
4186;SDS011;2107;52.306;10.484;2023-03-16T14:57:38;2.30;;;2.30;;
4186;SDS011;2107;52.306;10.484;2023-03-16T15:00:06;2.40;;;2.40;;
4186;SDS011;2107;52.306;10.484;2023-03-16T15:02:36;2.00;;;2.00;;
4186;SDS011;2107;52.306;10.484;2023-03-16T15:05:05;2.20;;;2.20;;
4186;SDS011;2107;52.306;10.484;2023-03-16T15:07:34;2.50;;;2.50;;
4186;SDS011;2107;52.306;10.484;2023-03-16T15:10:07;2.00;;;2.00;;
4186;SDS011;2107;52.306;10.484;2023-03-16T15:12:46;1.97;;;1.97;;
4186;SDS011;2107;52.306;10.484;2023-03-16T15:15:19;1.90;;;1.90;;
4186;SDS011;2107;52.306;10.484;2023-03-16T15:17:48;2.00;;;2.00;;
4186;SDS011;2107;52.306;10.484;2023-03-16T15:20:17;2.00;;;2.00;;
4186;SDS011;2107;52.306;10.484;2023-03-16T15:22:45;2.60;;;2.60;;
4186;SDS011;2107;52.306;10.484;2023-03-16T15:25:19;2.30;;;2.30;;
4186;SDS011;2107;52.306;10.484;2023-03-16T15:27:53;2.40;;;2.40;;